Time;durP1;ratioP1;P1;durP2;ratioP2;P2;SDS_P1;SDS_P2;PMS_P1;PMS_P2;Temp;Humidity;BMP_temperature;BMP_pressure;BME280_temperature;BME280_humidity;BME280_pressure;Samples;Min_cycle;Max_cycle;Signal;HPM_P1;HPM_P2
2023/06/10 00:00:30;;;;;;;5.72;4.50;;;22.00;81.70;;;22.46;77.46;100731.44;5171796;28;20149;-80
2023/06/10 00:03:04;;;;;;;5.78;4.45;;;21.90;81.80;;;22.42;78.11;100735.03;5172612;28;20142;-82
2023/06/10 00:05:38;;;;;;;5.80;3.90;;;21.90;82.20;;;22.38;79.21;100730.69;5172317;28;20106;-82
2023/06/10 00:08:11;;;;;;;4.40;3.67;;;21.80;83.10;;;22.32;80.28;100725.47;5171437;28;20456;-81
2023/06/10 00:10:43;;;;;;;6.13;4.13;;;21.80;83.80;;;22.25;80.99;100727.31;5182889;28;20064;-81
2023/06/10 00:13:15;;;;;;;5.82;3.70;;;21.70;84.40;;;22.19;81.53;100727.41;5186263;28;20042;-79
2023/06/10 00:15:48;;;;;;;4.97;3.58;;;21.60;84.90;;;22.10;82.39;100727.50;5176968;28;20451;-79
2023/06/10 00:18:22;;;;;;;5.10;3.88;;;21.50;85.60;;;22.03;82.24;100731.13;5178090;28;20060;-80
2023/06/10 00:20:55;;;;;;;5.40;3.85;;;21.50;85.80;;;21.98;82.56;100720.59;5176204;28;20064;-79
2023/06/10 00:23:30;;;;;;;4.75;3.70;;;21.40;86.20;;;21.92;83.12;100724.19;5187897;28;20042;-81
2023/06/10 00:26:02;;;;;;;5.40;3.95;;;21.40;86.70;;;21.85;83.73;100722.53;5185438;28;20050;-80
2023/06/10 00:28:34;;;;;;;4.95;3.58;;;21.30;87.30;;;21.83;83.49;100724.28;5176472;28;20110;-81
2023/06/10 00:31:06;;;;;;;5.75;3.95;;;21.30;87.30;;;21.80;83.57;100734.09;5177464;28;20081;-81
2023/06/10 00:33:40;;;;;;;5.78;3.90;;;21.20;87.50;;;21.77;83.81;100721.72;5182653;28;20101;-81
2023/06/10 00:36:12;;;;;;;5.15;3.88;;;21.20;88.00;;;21.73;84.48;100727.97;5175484;28;20057;-80
2023/06/10 00:38:44;;;;;;;5.28;3.97;;;21.20;88.60;;;21.67;85.19;100728.91;5183355;28;20068;-82
2023/06/10 00:41:16;;;;;;;5.80;3.60;;;21.10;89.20;;;21.60;86.50;100732.53;5175123;28;20046;-79
2023/06/10 00:43:48;;;;;;;5.00;3.63;;;21.00;90.00;;;21.51;87.38;100726.44;5174358;28;20043;-81
2023/06/10 00:46:22;;;;;;;6.60;4.15;;;20.90;90.40;;;21.40;87.84;100734.53;5175877;28;20042;-81
2023/06/10 00:48:55;;;;;;;6.18;4.22;;;20.90;90.80;;;21.30;88.70;100727.56;5173574;28;20050;-80
2023/06/10 00:51:28;;;;;;;4.65;4.10;;;20.80;91.10;;;21.21;89.49;100736.47;5175802;28;20049;-80
2023/06/10 00:54:00;;;;;;;6.18;4.20;;;20.70;91.60;;;21.12;90.22;100732.09;5174163;28;20042;-80
2023/06/10 00:56:34;;;;;;;5.45;4.15;;;20.60;92.00;;;21.04;90.78;100739.25;5181498;28;20065;-81
2023/06/10 00:59:07;;;;;;;5.93;4.07;;;20.50;92.40;;;20.96;91.28;100737.56;5174747;28;20044;-80
2023/06/10 01:01:39;;;;;;;5.20;4.05;;;20.40;92.80;;;20.90;91.56;100734.97;5181147;28;20050;-80
2023/06/10 01:04:13;;;;;;;6.70;4.43;;;20.40;93.20;;;20.81;92.16;100738.59;5175517;28;20061;-80
2023/06/10 01:07:01;;;;;;;6.15;4.18;;;20.30;93.60;;;20.72;92.30;100739.50;5172778;28;20050;-79
2023/06/10 01:09:52;;;;;;;6.00;4.07;;;20.20;93.90;;;20.65;93.11;100737.81;5174598;28;20054;-81
2023/06/10 01:12:33;;;;;;;6.13;4.43;;;20.10;94.40;;;20.57;93.82;100742.28;5184412;28;20042;-79
2023/06/10 01:15:07;;;;;;;5.85;4.07;;;20.10;95.30;;;20.50;94.33;100745.88;5177463;28;20500;-80
2023/06/10 01:17:54;;;;;;;;;;;20.00;95.40;;;20.43;95.18;100742.34;5178506;28;20050;-80
2023/06/10 01:20:31;;;;;;;4.93;3.95;;;19.90;96.00;;;20.38;95.37;100741.50;5176677;28;19949;-81
2023/06/10 01:23:05;;;;;;;5.82;4.07;;;19.90;96.50;;;20.33;95.57;100741.50;5177143;28;20046;-80
2023/06/10 01:25:44;;;;;;;6.55;4.30;;;19.80;96.90;;;20.25;96.09;100745.09;5176687;28;20555;-80
2023/06/10 01:28:22;;;;;;;5.15;3.92;;;19.70;97.40;;;20.19;96.75;100737.19;5174470;28;20045;-81
2023/06/10 01:31:07;;;;;;;6.20;4.40;;;19.70;98.00;;;20.14;97.06;100738.97;5174857;28;20050;-80
2023/06/10 01:33:44;;;;;;;6.38;4.35;;;19.60;98.40;;;20.09;97.41;100746.09;5174584;28;20081;-80
2023/06/10 01:36:18;;;;;;;6.47;4.43;;;19.60;98.90;;;20.02;97.25;100745.25;5194829;28;20076;-79
2023/06/10 01:38:54;;;;;;;5.72;4.28;;;19.50;99.20;;;19.98;97.57;100740.84;5184390;28;20061;-81
2023/06/10 01:41:26;;;;;;;6.15;4.15;;;19.50;99.60;;;19.94;97.77;100744.38;5173427;28;20077;-81
2023/06/10 01:43:58;;;;;;;6.20;4.32;;;19.40;99.90;;;19.89;98.08;100740.88;5175583;28;20042;-81
2023/06/10 01:46:30;;;;;;;6.15;4.25;;;19.40;99.90;;;19.84;98.62;100742.66;5174693;28;20056;-80
2023/06/10 01:49:03;;;;;;;7.00;4.53;;;19.30;99.90;;;19.79;98.99;100743.56;5177508;28;20058;-81
2023/06/10 01:51:35;;;;;;;5.85;4.10;;;19.30;99.90;;;19.76;99.64;100738.28;5190770;28;20488;-78
2023/06/10 01:54:09;;;;;;;6.10;4.57;;;19.30;99.90;;;19.74;99.96;100739.16;5177008;28;20062;-80
2023/06/10 01:56:41;;;;;;;5.82;4.18;;;19.20;99.90;;;19.72;100.00;100744.47;5175294;28;20049;-81
2023/06/10 01:59:13;;;;;;;6.05;4.22;;;19.20;99.90;;;19.66;100.00;100744.47;5175768;28;20046;-81
2023/06/10 02:01:45;;;;;;;6.35;4.28;;;19.20;99.90;;;19.62;100.00;100744.47;5175335;28;20137;-81
2023/06/10 02:04:18;;;;;;;6.90;4.72;;;19.10;99.90;;;19.57;100.00;100740.97;5175162;28;20481;-80
2023/06/10 02:06:51;;;;;;;7.28;4.85;;;19.10;99.90;;;19.51;100.00;100736.56;5176137;28;20129;-78
2023/06/10 02:09:24;;;;;;;7.72;4.45;;;19.00;99.90;;;19.47;100.00;100740.09;5176554;28;20077;-81
2023/06/10 02:11:56;;;;;;;5.63;4.22;;;19.00;99.90;;;19.43;100.00;100746.25;5176716;28;20034;-79
2023/06/10 02:14:28;;;;;;;6.03;4.38;;;18.90;99.90;;;19.37;100.00;100743.66;5177530;28;20038;-81
2023/06/10 02:17:01;;;;;;;6.43;4.90;;;18.90;99.90;;;19.34;100.00;100746.28;5184991;28;20042;-82
2023/06/10 02:19:36;;;;;;;7.15;4.97;;;18.90;99.90;;;19.31;100.00;100748.94;5178089;28;20050;-80
2023/06/10 02:22:08;;;;;;;6.50;4.50;;;18.80;99.90;;;19.25;100.00;100758.63;5179722;28;20046;-81
2023/06/10 02:24:42;;;;;;;6.53;4.55;;;18.80;99.90;;;19.23;100.00;100751.56;5175452;28;20066;-80
2023/06/10 02:27:15;;;;;;;7.47;4.75;;;18.70;99.90;;;19.18;100.00;100748.97;5174911;28;20053;-80
2023/06/10 02:29:47;;;;;;;5.97;4.68;;;18.70;99.90;;;19.12;100.00;100751.59;5182818;28;20144;-81
2023/06/10 02:32:20;;;;;;;6.43;4.25;;;18.70;99.90;;;19.09;100.00;100754.25;5191379;28;20065;-78
2023/06/10 02:34:52;;;;;;;7.20;5.25;;;18.60;99.90;;;19.05;100.00;100760.44;5190814;28;20050;-82
2023/06/10 02:37:25;;;;;;;6.93;4.93;;;18.60;99.90;;;18.99;100.00;100768.34;5174544;28;20046;-81
2023/06/10 02:39:59;;;;;;;6.72;4.72;;;18.50;99.90;;;18.95;100.00;100761.28;5173303;28;20412;-79
2023/06/10 02:42:32;;;;;;;7.18;4.88;;;18.50;99.90;;;18.93;100.00;100768.34;5174377;28;20085;-80
2023/06/10 02:45:07;;;;;;;7.32;5.10;;;18.50;99.90;;;18.89;100.00;100767.44;5182861;28;20165;-80
2023/06/10 02:47:44;;;;;;;7.75;5.95;;;18.50;99.90;;;18.86;100.00;100758.66;5172993;28;20046;-81
2023/06/10 02:50:18;;;;;;;7.68;4.85;;;18.40;99.90;;;18.84;100.00;100763.03;5174195;28;20044;-80
2023/06/10 02:53:03;;;;;;;7.63;5.07;;;18.40;99.90;;;18.81;100.00;100758.66;5182019;28;20046;-80
2023/06/10 02:55:37;;;;;;;7.15;5.30;;;18.30;99.90;;;18.78;100.00;100763.03;5190339;28;20050;-81
2023/06/10 02:58:15;;;;;;;7.28;4.90;;;18.30;99.90;;;18.75;100.00;100755.13;5173601;28;20065;-80
2023/06/10 03:00:47;;;;;;;7.40;5.28;;;18.30;99.90;;;18.70;100.00;100761.28;5172574;28;20047;-81
2023/06/10 03:03:22;;;;;;;8.57;5.60;;;18.20;99.90;;;18.65;100.00;100763.03;5182103;28;20047;-80
2023/06/10 03:06:03;;;;;;;8.32;5.40;;;18.20;99.90;;;18.60;100.00;100759.47;5176262;28;20038;-80
2023/06/10 03:08:37;;;;;;;6.65;4.72;;;18.10;99.90;;;18.55;100.00;100757.72;5181201;28;20050;-84
2023/06/10 03:11:14;;;;;;;7.55;5.28;;;18.10;99.90;;;18.51;100.00;100755.94;5183872;28;20050;-83
2023/06/10 03:13:47;;;;;;;8.43;5.32;;;18.10;99.90;;;18.47;100.00;100768.25;5182595;28;20488;-80
2023/06/10 03:16:22;;;;;;;7.90;5.05;;;18.00;99.90;;;18.41;100.00;100755.94;5190346;28;20054;-80
2023/06/10 03:18:54;;;;;;;7.80;5.32;;;18.00;99.90;;;18.39;100.00;100759.44;5178648;28;20100;-80
2023/06/10 03:21:26;;;;;;;7.63;5.00;;;18.00;99.90;;;18.37;100.00;100758.53;5181832;28;20512;-80
2023/06/10 03:24:01;;;;;;;8.77;5.45;;;17.90;99.90;;;18.33;100.00;100762.06;5173344;28;20046;-81
2023/06/10 03:26:35;;;;;;;7.75;5.22;;;17.90;99.90;;;18.29;100.00;100762.94;5173599;28;20134;-81
2023/06/10 03:29:08;;;;;;;7.22;5.50;;;17.90;99.90;;;18.27;100.00;100776.13;5172885;28;20110;-82
2023/06/10 03:31:40;;;;;;;8.23;5.25;;;17.90;99.90;;;18.25;100.00;100771.69;5180009;28;20467;-80
2023/06/10 03:34:13;;;;;;;9.00;5.60;;;17.80;99.90;;;18.23;100.00;100773.47;5179945;28;20042;-81
2023/06/10 03:36:45;;;;;;;7.78;5.18;;;17.80;99.90;;;18.21;100.00;100780.50;5173022;28;20046;-79
2023/06/10 03:39:17;;;;;;;7.80;5.18;;;17.80;99.90;;;18.16;100.00;100781.34;5180546;28;20138;-81
2023/06/10 03:41:51;;;;;;;7.90;5.35;;;17.70;99.90;;;18.14;100.00;100788.41;5180984;28;20046;-81
2023/06/10 03:44:23;;;;;;;7.82;5.65;;;17.80;99.90;;;18.13;100.00;100778.72;5174266;28;20073;-82
2023/06/10 03:46:56;;;;;;;7.00;5.00;;;17.70;99.90;;;18.12;100.00;100787.47;5178190;28;20049;-79
2023/06/10 03:49:29;;;;;;;7.63;5.18;;;17.70;99.90;;;18.13;100.00;100788.41;5179791;28;20054;-78
2023/06/10 03:52:04;;;;;;;8.00;5.15;;;17.70;99.90;;;18.13;100.00;100793.66;5174049;28;20065;-81
2023/06/10 03:54:36;;;;;;;8.07;5.32;;;17.70;99.90;;;18.12;100.00;100781.34;5174817;28;20531;-78
2023/06/10 03:57:10;;;;;;;6.95;5.03;;;17.70;99.90;;;18.12;100.00;100782.22;5178237;28;20117;-81
2023/06/10 03:59:42;;;;;;;7.03;4.95;;;17.70;99.90;;;18.12;100.00;100782.22;5180437;28;20046;-81
2023/06/10 04:02:14;;;;;;;7.07;5.00;;;17.70;99.90;;;18.13;100.00;100784.00;5175496;28;20057;-80
2023/06/10 04:04:46;;;;;;;7.50;5.63;;;17.70;99.90;;;18.12;100.00;100789.25;5174802;28;20089;-81
2023/06/10 04:07:20;;;;;;;8.23;5.13;;;17.70;99.90;;;18.12;100.00;100795.41;5175383;28;20054;-81
2023/06/10 04:09:53;;;;;;;9.07;5.90;;;17.70;99.90;;;18.12;100.00;100786.59;5183460;28;20096;-80
2023/06/10 04:12:27;;;;;;;8.35;5.53;;;17.70;99.90;;;18.12;100.00;100798.03;5174483;28;20803;-80
2023/06/10 04:15:00;;;;;;;7.32;5.53;;;17.70;99.90;;;18.17;100.00;100793.66;5178129;28;20049;-82
2023/06/10 04:17:32;;;;;;;7.68;5.28;;;17.70;99.90;;;18.27;100.00;100794.59;5192645;28;20046;-81
2023/06/10 04:20:07;;;;;;;8.32;5.63;;;17.80;99.90;;;18.31;100.00;100795.47;5175395;28;20038;-79
2023/06/10 04:22:41;;;;;;;9.15;5.93;;;17.80;99.90;;;18.36;100.00;100801.66;5175978;28;20051;-78
2023/06/10 04:25:13;;;;;;;9.50;5.50;;;17.90;99.90;;;18.37;100.00;100796.38;5175592;28;20046;-81
2023/06/10 04:27:48;;;;;;;8.70;5.93;;;17.90;99.90;;;18.40;100.00;100808.72;5191730;28;20034;-83
2023/06/10 04:30:21;;;;;;;8.45;5.80;;;17.90;99.90;;;18.44;100.00;100807.81;5187594;28;20069;-79
2023/06/10 04:32:55;;;;;;;8.68;5.93;;;18.00;99.90;;;18.50;100.00;100820.16;5176049;28;20050;-81
2023/06/10 04:35:27;;;;;;;8.88;6.22;;;18.10;99.90;;;18.52;100.00;100814.03;5177427;28;20046;-81
2023/06/10 04:38:02;;;;;;;8.90;6.00;;;18.10;99.90;;;18.54;100.00;100807.00;5178905;28;20495;-82
2023/06/10 04:40:34;;;;;;;8.65;5.90;;;18.10;99.90;;;18.60;100.00;100816.69;5181294;28;20514;-80
2023/06/10 04:43:08;;;;;;;8.13;5.55;;;18.10;99.90;;;18.64;100.00;100811.38;5178283;28;20047;-83
2023/06/10 04:45:44;;;;;;;8.50;5.95;;;18.20;99.90;;;18.72;100.00;100803.53;5184952;28;20046;-80
2023/06/10 04:48:17;;;;;;;8.82;6.47;;;18.30;99.90;;;18.87;100.00;100813.25;5179040;28;20051;-81
2023/06/10 04:50:49;;;;;;;9.65;6.78;;;18.40;99.90;;;19.13;100.00;100810.63;5200381;23;20050;-80
2023/06/10 04:53:22;;;;;;;10.88;7.05;;;18.60;99.90;;;19.47;100.00;100816.75;5190167;28;20065;-79
2023/06/10 04:55:55;;;;;;;12.80;7.40;;;18.90;99.90;;;19.83;100.00;100813.19;5188846;28;20038;-80
2023/06/10 04:58:28;;;;;;;11.35;8.25;;;19.20;99.90;;;20.22;100.00;100809.53;5184069;28;20048;-81
2023/06/10 05:01:01;;;;;;;13.55;7.60;;;19.60;99.90;;;20.62;100.00;100817.28;5190489;28;20049;-80
2023/06/10 05:03:34;;;;;;;10.10;7.30;;;19.90;99.90;;;20.99;100.00;100817.03;5168306;28;20740;-81
2023/06/10 05:06:06;;;;;;;10.10;7.07;;;20.30;99.90;;;21.36;100.00;100821.16;5165895;28;20046;-80
2023/06/10 05:08:38;;;;;;;9.70;7.53;;;20.60;99.90;;;21.70;99.99;100817.31;5178783;28;20120;-81
2023/06/10 05:11:10;;;;;;;11.18;7.50;;;20.90;99.90;;;22.01;97.84;100817.84;5181496;28;20061;-78
2023/06/10 05:13:44;;;;;;;10.18;7.05;;;21.30;99.90;;;22.30;92.45;100813.13;5161826;28;20058;-80
2023/06/10 05:16:16;;;;;;;11.45;6.55;;;21.50;99.90;;;22.58;89.38;100823.34;5168924;28;20046;-80
2023/06/10 05:18:50;;;;;;;9.45;6.57;;;21.80;99.90;;;22.91;86.47;100824.66;5164715;28;20728;-81
2023/06/10 05:21:22;;;;;;;8.95;6.68;;;22.10;99.90;;;23.21;85.67;100813.56;5184737;28;20109;-80
2023/06/10 05:23:55;;;;;;;10.82;6.50;;;22.40;99.90;;;23.49;82.88;100818.38;5168274;28;20053;-79
2023/06/10 05:26:28;;;;;;;9.15;6.90;;;22.70;98.80;;;23.68;81.35;100821.63;5183939;28;20073;-81
2023/06/10 05:29:02;;;;;;;10.23;6.35;;;22.90;98.00;;;23.85;80.71;100822.16;5169853;28;20133;-80
2023/06/10 05:31:34;;;;;;;9.93;6.97;;;23.00;97.50;;;24.05;80.63;100814.66;5184229;28;20041;-81
2023/06/10 05:34:06;;;;;;;9.32;6.50;;;23.20;97.30;;;24.33;80.51;100824.75;5163536;28;20056;-81
2023/06/10 05:36:38;;;;;;;10.18;6.65;;;23.50;97.10;;;24.49;77.62;100830.63;5164619;28;20060;-80
2023/06/10 05:39:11;;;;;;;10.52;6.75;;;23.60;95.90;;;24.63;76.00;100832.06;5191900;28;20045;-81
2023/06/10 05:41:43;;;;;;;8.43;6.07;;;23.80;94.90;;;24.82;74.92;100831.66;5183137;28;20096;-81
2023/06/10 05:44:16;;;;;;;9.27;6.10;;;24.00;94.20;;;25.01;75.49;100834.78;5196966;28;20069;-79
2023/06/10 05:46:48;;;;;;;10.45;6.22;;;24.10;94.30;;;25.15;74.90;100835.34;5208818;28;20439;-80
2023/06/10 05:49:21;;;;;;;7.63;5.78;;;24.30;93.80;;;25.30;76.07;100842.06;5182630;28;20152;-80
2023/06/10 05:51:53;;;;;;;8.45;6.00;;;24.40;94.30;;;25.48;73.71;100830.94;5189607;28;20097;-80
2023/06/10 05:54:25;;;;;;;8.65;5.78;;;24.60;93.20;;;25.69;70.24;100833.06;5195007;28;20480;-81
2023/06/10 05:56:57;;;;;;;8.52;6.05;;;24.70;91.50;;;25.98;68.29;100842.97;5194145;28;20052;-84
2023/06/10 05:59:31;;;;;;;9.15;5.57;;;25.00;90.40;;;26.14;68.56;100838.03;5190590;28;20056;-82
2023/06/10 06:02:03;;;;;;;11.80;6.00;;;25.20;90.20;;;26.35;67.74;100841.03;5193255;28;20109;-82
2023/06/10 06:04:35;;;;;;;7.57;5.30;;;25.40;89.00;;;26.47;66.41;100838.00;5195019;28;20073;-79
2023/06/10 06:07:07;;;;;;;7.80;5.68;;;25.50;87.30;;;26.64;66.59;100838.38;5183666;28;20049;-81
2023/06/10 06:09:39;;;;;;;8.05;5.40;;;25.70;87.10;;;26.77;67.79;100830.84;5194439;28;20439;-81
2023/06/10 06:12:11;;;;;;;7.88;5.55;;;25.80;87.80;;;26.92;66.60;100840.16;5198291;28;20054;-82
2023/06/10 06:14:45;;;;;;;9.80;5.47;;;26.00;86.70;;;27.11;65.32;100838.69;5216620;28;20084;-84
2023/06/10 06:17:17;;;;;;;8.15;5.32;;;26.10;84.90;;;27.26;64.90;100843.56;5187865;28;20049;-83
2023/06/10 06:19:50;;;;;;;8.27;5.68;;;26.30;84.10;;;27.40;63.99;100844.88;5195847;28;20053;-82
2023/06/10 06:22:22;;;;;;;7.05;5.35;;;26.40;83.10;;;27.49;63.96;100836.53;5202290;28;20086;-82
2023/06/10 06:24:54;;;;;;;8.25;5.28;;;26.50;82.50;;;27.52;63.45;100841.78;5207997;28;20081;-81
2023/06/10 06:27:26;;;;;;;7.65;5.28;;;26.60;81.50;;;27.63;64.52;100839.59;5186952;28;20057;-81
2023/06/10 06:29:59;;;;;;;7.53;5.38;;;26.70;82.30;;;27.68;64.52;100834.09;5216616;28;20049;-83
2023/06/10 06:32:32;;;;;;;7.70;5.18;;;26.70;82.10;;;27.70;63.77;100833.13;5209837;28;20041;-83
2023/06/10 06:35:07;;;;;;;6.82;4.88;;;26.80;81.50;;;27.90;62.47;100834.22;5184811;28;20046;-81
2023/06/10 06:37:40;;;;;;;6.20;4.75;;;26.90;79.80;;;28.02;62.38;100841.81;5199181;28;20049;-84
2023/06/10 06:40:23;;;;;;;7.70;5.13;;;27.00;79.40;;;27.98;62.75;100848.22;5183932;28;20055;-83
2023/06/10 06:42:55;;;;;;;6.40;4.95;;;27.00;79.50;;;27.84;62.60;100846.00;5183091;28;20033;-83
2023/06/10 06:45:58;;;;;;;7.88;4.78;;;26.90;79.10;;;27.66;62.27;100846.66;5147140;28;20488;-83
2023/06/10 06:48:30;;;;;;;6.20;4.45;;;26.80;78.20;;;27.51;62.47;100850.72;5198688;28;20042;-83
2023/06/10 06:51:02;;;;;;;5.93;4.15;;;26.70;78.30;;;27.39;62.66;100849.38;5193042;28;20042;-83
2023/06/10 06:53:35;;;;;;;6.93;4.80;;;26.60;78.40;;;27.31;62.61;100846.03;5182685;28;20045;-83
2023/06/10 06:56:08;;;;;;;6.13;4.20;;;26.50;78.20;;;27.27;63.44;100850.66;5185092;28;20064;-83
2023/06/10 06:58:40;;;;;;;7.93;4.82;;;26.40;78.80;;;27.27;64.16;100853.31;5180548;28;20045;-82
2023/06/10 07:01:13;;;;;;;8.35;5.00;;;26.30;79.30;;;27.27;64.79;100856.00;5179773;28;20048;-83
2023/06/10 07:03:45;;;;;;;5.50;4.15;;;26.30;80.00;;;27.23;64.30;100854.34;5198717;28;20099;-81
2023/06/10 07:06:18;;;;;;;7.75;4.80;;;26.30;79.60;;;27.26;64.05;100846.22;5202064;28;20091;-82
2023/06/10 07:08:51;;;;;;;6.35;4.07;;;26.30;79.30;;;27.35;64.64;100844.16;5204477;28;20036;-80
2023/06/10 07:11:23;;;;;;;5.60;4.38;;;26.40;79.80;;;27.46;64.89;100850.03;5191320;28;20048;-81
2023/06/10 07:13:55;;;;;;;5.90;4.15;;;26.50;80.40;;;27.53;64.07;100851.56;5209010;28;20068;-82
2023/06/10 07:16:28;;;;;;;5.88;4.28;;;26.50;79.60;;;27.59;63.24;100848.69;5197241;28;20045;-83
2023/06/10 07:19:00;;;;;;;6.95;4.75;;;26.60;78.90;;;27.67;63.42;100849.28;5202632;28;20092;-82
2023/06/10 07:21:33;;;;;;;6.82;4.03;;;26.60;78.80;;;27.81;63.63;100847.00;5209170;28;20041;-78
2023/06/10 07:24:06;;;;;;;6.18;4.13;;;26.70;79.00;;;27.91;61.75;100846.66;5205608;28;20045;-81
2023/06/10 07:26:38;;;;;;;5.80;3.80;;;26.80;77.40;;;27.94;61.16;100846.56;5185584;28;20057;-82
2023/06/10 07:29:10;;;;;;;6.47;4.35;;;26.90;76.70;;;28.04;61.04;100851.56;5191278;28;20529;-82
2023/06/10 07:31:44;;;;;;;6.60;4.53;;;27.00;76.30;;;28.10;60.56;100847.75;5182657;28;20045;-82
2023/06/10 07:34:16;;;;;;;5.22;4.00;;;27.00;75.70;;;28.17;60.63;100849.31;5181695;28;20073;-82
2023/06/10 07:36:48;;;;;;;8.80;4.47;;;27.10;75.80;;;28.25;60.29;100847.19;5191358;28;20444;-80
2023/06/10 07:39:20;;;;;;;5.28;4.05;;;27.20;75.40;;;28.37;60.36;100852.13;5192354;28;20050;-82
2023/06/10 07:41:53;;;;;;;7.15;4.10;;;27.20;75.60;;;28.54;59.94;100846.09;5197573;28;20400;-80
2023/06/10 07:44:25;;;;;;;5.45;3.85;;;27.40;75.90;;;28.72;59.60;100846.31;5199854;28;20418;-79
2023/06/10 07:46:59;;;;;;;4.65;3.63;;;27.50;74.70;;;28.91;59.28;100848.25;5205066;28;20037;-79
2023/06/10 07:49:31;;;;;;;7.30;4.43;;;27.60;74.80;;;28.99;58.82;100847.06;5181003;28;20038;-79
2023/06/10 07:52:03;;;;;;;5.57;4.30;;;27.70;74.10;;;29.14;58.31;100849.09;5192994;28;20045;-82
2023/06/10 07:54:35;;;;;;;5.68;4.18;;;27.80;73.90;;;29.17;57.01;100844.50;5191419;28;20065;-84
2023/06/10 07:57:08;;;;;;;6.78;4.35;;;27.90;72.30;;;29.36;56.73;100852.66;5204779;28;20519;-82
2023/06/10 07:59:40;;;;;;;6.70;4.03;;;28.00;72.00;;;29.61;56.38;100846.28;5190624;28;20042;-85
2023/06/10 08:02:13;;;;;;;5.57;4.00;;;28.20;71.90;;;29.90;55.47;100850.34;5188103;28;20050;-85
2023/06/10 08:04:45;;;;;;;6.18;4.25;;;28.40;71.00;;;30.23;55.13;100848.84;5179719;28;20488;-85
2023/06/10 08:07:18;;;;;;;5.90;4.00;;;28.60;70.60;;;30.60;54.17;100848.97;5190921;28;20040;-86
2023/06/10 08:09:50;;;;;;;5.82;4.03;;;28.90;69.80;;;31.00;52.96;100856.00;5183797;28;20053;-85
2023/06/10 08:12:22;;;;;;;5.80;4.40;;;29.10;68.90;;;31.41;52.43;100851.25;5182714;28;20048;-85
2023/06/10 08:14:54;;;;;;;4.88;3.67;;;29.40;68.50;;;31.96;52.08;100852.97;5182637;28;20417;-85
2023/06/10 08:17:28;;;;;;;4.20;3.15;;;29.60;68.40;;;32.52;51.60;100851.69;5182674;28;20045;-85
2023/06/10 08:20:00;;;;;;;5.20;3.80;;;30.00;68.30;;;33.13;50.76;100854.53;5184777;28;20046;-83
2023/06/10 08:22:33;;;;;;;5.07;3.78;;;30.30;68.00;;;33.86;48.93;100864.63;5181524;28;20041;-84
2023/06/10 08:25:06;;;;;;;5.00;3.58;;;30.70;66.70;;;34.59;48.12;100857.34;5181817;28;20050;-84
2023/06/10 08:27:38;;;;;;;4.78;3.50;;;31.10;66.10;;;35.23;46.75;100866.66;5183705;28;20046;-87
2023/06/10 08:30:13;;;;;;;4.20;3.42;;;31.40;65.30;;;35.82;44.82;100864.44;5205295;28;20057;-86
2023/06/10 08:32:46;;;;;;;5.55;3.72;;;31.80;62.80;;;36.45;43.62;100856.44;5183511;28;20045;-86
2023/06/10 08:35:18;;;;;;;4.57;3.15;;;32.20;62.00;;;37.22;42.42;100863.38;5177486;28;20424;-87
2023/06/10 08:37:50;;;;;;;4.25;3.30;;;32.80;60.60;;;38.06;41.57;100865.03;5182112;28;20046;-87
2023/06/10 08:40:22;;;;;;;4.97;3.55;;;33.50;59.30;;;38.85;40.38;100855.00;5207695;28;20044;-85
2023/06/10 08:43:02;;;;;;;4.28;3.20;;;34.20;57.80;;;38.98;40.03;100863.03;5185523;28;20045;-85
2023/06/10 08:45:37;;;;;;;5.72;3.67;;;34.60;56.40;;;39.64;39.54;100865.66;5185210;28;20123;-82
2023/06/10 08:48:12;;;;;;;4.78;3.25;;;35.30;55.90;;;40.25;38.91;100860.31;5200832;28;20046;-81
2023/06/10 08:50:46;;;;;;;4.43;3.45;;;35.80;54.80;;;40.92;37.80;100854.25;5178404;28;20042;-81
2023/06/10 08:53:19;;;;;;;4.70;3.42;;;36.30;54.00;;;41.43;37.78;100866.84;5193976;28;20107;-81
2023/06/10 08:55:52;;;;;;;5.18;3.50;;;36.80;53.40;;;41.90;36.76;100866.94;5204166;28;20093;-85
2023/06/10 08:58:25;;;;;;;5.57;3.78;;;37.20;52.50;;;41.13;35.34;100868.66;5215547;28;20048;-82
2023/06/10 09:00:59;;;;;;;8.52;3.50;;;36.90;50.30;;;40.99;36.21;100863.59;5204782;28;20038;-84
2023/06/10 09:03:33;;;;;;;4.53;3.50;;;36.90;50.90;;;41.22;36.65;100862.34;5210240;28;20048;-80
2023/06/10 09:06:06;;;;;;;4.93;3.22;;;37.00;51.20;;;41.47;36.14;100860.03;5187993;28;20046;-83
2023/06/10 09:08:40;;;;;;;6.07;3.60;;;37.20;50.80;;;41.63;35.73;100859.47;5203904;28;20045;-83
2023/06/10 09:11:12;;;;;;;;;;;37.30;50.10;;;41.70;35.85;100858.72;5202222;28;20049;-83
2023/06/10 09:13:44;;;;;;;4.57;3.40;;;37.50;49.80;;;42.17;35.68;100860.69;5193163;28;19989;-82
2023/06/10 09:16:16;;;;;;;5.00;3.45;;;37.80;50.00;;;42.28;35.48;100866.84;5206321;28;20038;-83
2023/06/10 09:18:54;;;;;;;4.00;3.00;;;37.90;49.60;;;42.09;35.37;100863.28;5193546;28;20422;-84
2023/06/10 09:21:27;;;;;;;4.45;3.55;;;37.90;49.30;;;42.01;36.13;100853.06;5221601;28;20080;-84
2023/06/10 09:23:59;;;;;;;4.72;3.35;;;38.00;49.50;;;41.59;35.54;100847.94;5193602;28;20045;-83
2023/06/10 09:26:31;;;;;;;3.85;3.03;;;37.80;49.00;;;41.07;36.50;100844.63;5207908;28;20038;-82
2023/06/10 09:29:06;;;;;;;4.93;3.40;;;37.60;49.40;;;40.32;36.78;100839.66;5195079;28;20513;-84
2023/06/10 09:31:40;;;;;;;4.45;3.60;;;37.30;49.20;;;38.64;37.66;100837.69;5192674;28;20042;-81
2023/06/10 09:34:16;;;;;;;5.22;3.88;;;36.40;49.10;;;37.06;38.79;100832.91;5206041;28;20054;-83
2023/06/10 09:36:48;;;;;;;5.07;3.50;;;35.40;49.20;;;36.02;40.95;100837.78;5210719;28;20045;-82
2023/06/10 09:39:20;;;;;;;11.88;3.97;;;34.70;50.60;;;35.17;42.20;100826.44;5193935;28;20045;-87
2023/06/10 09:41:52;;;;;;;5.22;3.58;;;34.10;51.60;;;34.90;44.72;100831.84;5180996;28;20065;-86
2023/06/10 09:44:25;;;;;;;5.65;4.05;;;33.70;53.50;;;34.39;43.43;100820.69;5189693;28;20068;-84
2023/06/10 09:46:59;;;;;;;6.53;4.22;;;33.30;52.40;;;34.00;44.10;100824.09;5187102;28;20076;-87
2023/06/10 09:49:32;;;;;;;6.20;4.25;;;33.00;53.00;;;33.66;45.27;100820.75;5182195;28;20045;-88
2023/06/10 09:52:07;;;;;;;5.93;4.15;;;32.60;53.80;;;33.58;46.28;100812.25;5183841;28;20049;-86
2023/06/10 09:54:39;;;;;;;5.38;3.83;;;32.60;54.70;;;33.63;46.04;100810.13;5190483;28;20476;-84
2023/06/10 09:57:11;;;;;;;5.35;4.32;;;32.50;54.60;;;33.58;44.89;100823.06;5198234;28;20057;-84
2023/06/10 09:59:45;;;;;;;6.80;4.45;;;32.40;53.70;;;33.46;44.94;100818.41;5189188;28;20054;-86
2023/06/10 10:02:18;;;;;;;5.22;3.78;;;32.40;53.80;;;33.34;44.88;100816.41;5205357;28;20407;-85
2023/06/10 10:04:51;;;;;;;5.55;4.35;;;32.30;53.60;;;33.19;44.75;100805.56;5191714;28;20041;-87
2023/06/10 10:07:23;;;;;;;6.35;4.43;;;32.20;53.60;;;33.02;44.51;100808.38;5188501;28;20041;-85
2023/06/10 10:09:55;;;;;;;5.10;4.15;;;32.10;53.10;;;32.92;43.60;100809.84;5197638;28;20065;-85
2023/06/10 10:12:27;;;;;;;7.97;4.60;;;32.00;52.40;;;32.53;45.46;100813.84;5186252;28;20519;-84
2023/06/10 10:15:00;;;;;;;5.90;4.50;;;31.70;53.80;;;32.53;44.86;100803.03;5196994;28;20045;-85
2023/06/10 10:17:34;;;;;;;6.88;4.30;;;31.70;53.50;;;32.71;44.64;100805.66;5183813;28;20054;-83
2023/06/10 10:20:09;;;;;;;;;;;31.70;53.40;;;32.85;44.35;100808.44;5184922;28;20058;-88
2023/06/10 10:22:44;;;;;;;5.68;4.03;;;31.80;53.30;;;33.11;44.39;100807.81;5184281;28;19928;-86
2023/06/10 10:25:24;;;;;;;5.90;3.92;;;32.00;53.30;;;33.29;45.04;100807.69;5205736;28;20375;-85
2023/06/10 10:28:09;;;;;;;5.20;4.20;;;32.10;53.70;;;33.33;43.57;100811.97;5180869;28;20419;-85
2023/06/10 10:30:43;;;;;;;6.05;4.03;;;32.20;52.70;;;33.34;42.83;100800.19;5209425;28;20741;-86
2023/06/10 10:33:22;;;;;;;5.43;3.83;;;32.20;52.00;;;33.49;43.27;100796.59;5191207;28;20422;-86
2023/06/10 10:35:56;;;;;;;5.70;4.18;;;32.30;52.60;;;33.28;42.96;100797.84;5193714;28;20045;-86